sensor_id;sensor_type;location;lat;lon;timestamp;P1;durP1;ratioP1;P2;durP2;ratioP2
72319;SDS011;60269;52.502;16.732;2023-04-30T00:01:58;16.73;;;6.03;;
72319;SDS011;60269;52.502;16.732;2023-04-30T00:05:30;15.50;;;6.13;;
72319;SDS011;60269;52.502;16.732;2023-04-30T00:09:02;14.20;;;6.00;;
72319;SDS011;60269;52.502;16.732;2023-04-30T00:12:34;12.02;;;5.22;;
72319;SDS011;60269;52.502;16.732;2023-04-30T00:16:06;13.90;;;6.27;;
72319;SDS011;60269;52.502;16.732;2023-04-30T00:19:39;16.60;;;5.95;;
72319;SDS011;60269;52.502;16.732;2023-04-30T00:23:10;17.02;;;6.30;;
72319;SDS011;60269;52.502;16.732;2023-04-30T00:26:42;16.20;;;5.97;;
72319;SDS011;60269;52.502;16.732;2023-04-30T00:30:14;15.35;;;6.43;;
72319;SDS011;60269;52.502;16.732;2023-04-30T00:33:47;15.38;;;5.40;;
72319;SDS011;60269;52.502;16.732;2023-04-30T00:37:18;12.10;;;5.63;;
72319;SDS011;60269;52.502;16.732;2023-04-30T00:40:51;16.73;;;6.20;;
72319;SDS011;60269;52.502;16.732;2023-04-30T00:44:23;15.90;;;5.82;;
72319;SDS011;60269;52.502;16.732;2023-04-30T00:47:55;14.50;;;5.63;;
72319;SDS011;60269;52.502;16.732;2023-04-30T00:51:27;17.10;;;5.40;;
72319;SDS011;60269;52.502;16.732;2023-04-30T00:54:59;17.30;;;7.03;;
72319;SDS011;60269;52.502;16.732;2023-04-30T00:58:31;13.15;;;5.28;;
72319;SDS011;60269;52.502;16.732;2023-04-30T01:02:04;13.97;;;5.90;;
72319;SDS011;60269;52.502;16.732;2023-04-30T01:05:37;13.52;;;4.85;;
72319;SDS011;60269;52.502;16.732;2023-04-30T01:09:08;16.48;;;5.70;;
72319;SDS011;60269;52.502;16.732;2023-04-30T01:16:46;17.93;;;5.63;;
72319;SDS011;60269;52.502;16.732;2023-04-30T01:20:23;13.05;;;4.88;;
72319;SDS011;60269;52.502;16.732;2023-04-30T01:31:47;12.88;;;4.95;;
72319;SDS011;60269;52.502;16.732;2023-04-30T01:35:19;13.65;;;4.82;;
72319;SDS011;60269;52.502;16.732;2023-04-30T01:39:09;13.10;;;5.67;;
72319;SDS011;60269;52.502;16.732;2023-04-30T01:46:18;15.30;;;5.35;;
72319;SDS011;60269;52.502;16.732;2023-04-30T01:53:52;11.80;;;5.27;;
72319;SDS011;60269;52.502;16.732;2023-04-30T01:57:31;11.95;;;4.78;;
72319;SDS011;60269;52.502;16.732;2023-04-30T02:01:08;14.23;;;5.43;;
72319;SDS011;60269;52.502;16.732;2023-04-30T02:04:58;12.10;;;4.00;;
72319;SDS011;60269;52.502;16.732;2023-04-30T02:08:30;15.57;;;4.38;;
72319;SDS011;60269;52.502;16.732;2023-04-30T02:12:02;11.32;;;4.35;;
72319;SDS011;60269;52.502;16.732;2023-04-30T02:15:34;13.47;;;4.50;;
72319;SDS011;60269;52.502;16.732;2023-04-30T02:19:06;15.85;;;5.07;;
72319;SDS011;60269;52.502;16.732;2023-04-30T02:22:38;15.52;;;4.95;;
72319;SDS011;60269;52.502;16.732;2023-04-30T02:26:11;13.80;;;4.30;;
72319;SDS011;60269;52.502;16.732;2023-04-30T02:29:42;14.17;;;4.93;;
72319;SDS011;60269;52.502;16.732;2023-04-30T02:33:14;11.85;;;4.85;;
72319;SDS011;60269;52.502;16.732;2023-04-30T02:36:47;9.93;;;3.75;;
72319;SDS011;60269;52.502;16.732;2023-04-30T02:40:19;14.10;;;4.53;;
72319;SDS011;60269;52.502;16.732;2023-04-30T02:43:51;13.18;;;4.82;;
72319;SDS011;60269;52.502;16.732;2023-04-30T02:47:23;13.93;;;4.43;;
72319;SDS011;60269;52.502;16.732;2023-04-30T02:50:55;10.47;;;4.00;;
72319;SDS011;60269;52.502;16.732;2023-04-30T02:54:27;11.88;;;4.22;;
72319;SDS011;60269;52.502;16.732;2023-04-30T02:57:59;14.60;;;4.28;;
72319;SDS011;60269;52.502;16.732;2023-04-30T03:01:31;11.50;;;4.43;;
72319;SDS011;60269;52.502;16.732;2023-04-30T03:05:03;12.87;;;3.97;;
72319;SDS011;60269;52.502;16.732;2023-04-30T03:08:36;12.38;;;4.03;;
72319;SDS011;60269;52.502;16.732;2023-04-30T03:12:07;12.18;;;3.67;;
72319;SDS011;60269;52.502;16.732;2023-04-30T03:15:39;10.47;;;4.20;;
72319;SDS011;60269;52.502;16.732;2023-04-30T03:19:11;14.38;;;4.00;;
72319;SDS011;60269;52.502;16.732;2023-04-30T03:22:43;12.50;;;4.35;;
72319;SDS011;60269;52.502;16.732;2023-04-30T03:26:15;10.83;;;3.80;;
72319;SDS011;60269;52.502;16.732;2023-04-30T03:29:48;11.75;;;3.78;;
72319;SDS011;60269;52.502;16.732;2023-04-30T03:33:19;14.15;;;4.20;;
72319;SDS011;60269;52.502;16.732;2023-04-30T03:36:52;11.02;;;3.75;;
72319;SDS011;60269;52.502;16.732;2023-04-30T03:40:24;11.50;;;4.40;;
72319;SDS011;60269;52.502;16.732;2023-04-30T03:43:56;10.40;;;3.58;;
72319;SDS011;60269;52.502;16.732;2023-04-30T03:47:28;14.35;;;5.30;;
72319;SDS011;60269;52.502;16.732;2023-04-30T03:51:00;12.33;;;3.93;;
72319;SDS011;60269;52.502;16.732;2023-04-30T03:54:32;12.60;;;4.80;;
72319;SDS011;60269;52.502;16.732;2023-04-30T03:58:04;11.93;;;4.28;;
72319;SDS011;60269;52.502;16.732;2023-04-30T04:01:36;11.57;;;3.77;;
72319;SDS011;60269;52.502;16.732;2023-04-30T04:05:09;11.68;;;4.32;;
72319;SDS011;60269;52.502;16.732;2023-04-30T04:08:41;10.75;;;3.38;;
72319;SDS011;60269;52.502;16.732;2023-04-30T04:12:14;12.95;;;4.40;;
72319;SDS011;60269;52.502;16.732;2023-04-30T04:15:46;14.77;;;3.40;;
72319;SDS011;60269;52.502;16.732;2023-04-30T04:19:18;12.63;;;3.58;;
72319;SDS011;60269;52.502;16.732;2023-04-30T04:22:50;11.20;;;3.67;;
72319;SDS011;60269;52.502;16.732;2023-04-30T04:26:23;9.73;;;3.03;;
72319;SDS011;60269;52.502;16.732;2023-04-30T04:29:56;12.27;;;3.60;;
72319;SDS011;60269;52.502;16.732;2023-04-30T04:33:28;10.70;;;3.28;;
72319;SDS011;60269;52.502;16.732;2023-04-30T04:37:01;11.10;;;3.00;;
72319;SDS011;60269;52.502;16.732;2023-04-30T04:40:34;11.10;;;3.22;;
72319;SDS011;60269;52.502;16.732;2023-04-30T04:44:06;12.27;;;3.92;;
72319;SDS011;60269;52.502;16.732;2023-04-30T04:47:38;8.98;;;2.92;;
72319;SDS011;60269;52.502;16.732;2023-04-30T04:51:10;8.40;;;2.87;;
72319;SDS011;60269;52.502;16.732;2023-04-30T04:54:43;12.60;;;2.80;;
72319;SDS011;60269;52.502;16.732;2023-04-30T04:58:15;11.63;;;2.47;;
72319;SDS011;60269;52.502;16.732;2023-04-30T05:01:47;10.10;;;2.57;;
72319;SDS011;60269;52.502;16.732;2023-04-30T05:05:19;16.15;;;2.80;;
72319;SDS011;60269;52.502;16.732;2023-04-30T05:08:50;9.00;;;2.25;;
72319;SDS011;60269;52.502;16.732;2023-04-30T05:12:23;8.77;;;2.60;;
72319;SDS011;60269;52.502;16.732;2023-04-30T05:15:55;10.95;;;2.42;;
72319;SDS011;60269;52.502;16.732;2023-04-30T05:19:27;8.50;;;2.47;;
72319;SDS011;60269;52.502;16.732;2023-04-30T05:22:59;8.90;;;2.22;;
72319;SDS011;60269;52.502;16.732;2023-04-30T05:26:31;6.43;;;2.03;;
72319;SDS011;60269;52.502;16.732;2023-04-30T05:30:03;7.47;;;2.22;;
72319;SDS011;60269;52.502;16.732;2023-04-30T05:33:35;9.07;;;2.80;;
72319;SDS011;60269;52.502;16.732;2023-04-30T05:37:07;9.77;;;1.87;;
72319;SDS011;60269;52.502;16.732;2023-04-30T05:40:39;10.75;;;2.38;;
72319;SDS011;60269;52.502;16.732;2023-04-30T05:44:11;7.55;;;2.05;;
72319;SDS011;60269;52.502;16.732;2023-04-30T05:47:46;9.15;;;2.42;;
72319;SDS011;60269;52.502;16.732;2023-04-30T05:51:18;8.60;;;1.90;;
72319;SDS011;60269;52.502;16.732;2023-04-30T05:54:51;8.43;;;1.98;;
72319;SDS011;60269;52.502;16.732;2023-04-30T05:58:23;10.43;;;1.63;;
72319;SDS011;60269;52.502;16.732;2023-04-30T06:01:56;14.00;;;2.43;;
72319;SDS011;60269;52.502;16.732;2023-04-30T06:05:28;8.77;;;1.67;;
72319;SDS011;60269;52.502;16.732;2023-04-30T06:09:00;7.28;;;1.98;;
72319;SDS011;60269;52.502;16.732;2023-04-30T06:12:32;11.25;;;2.05;;
72319;SDS011;60269;52.502;16.732;2023-04-30T06:16:05;9.30;;;1.97;;
72319;SDS011;60269;52.502;16.732;2023-04-30T06:19:37;9.88;;;1.73;;
72319;SDS011;60269;52.502;16.732;2023-04-30T06:23:09;10.60;;;1.40;;
72319;SDS011;60269;52.502;16.732;2023-04-30T06:26:41;7.83;;;1.60;;
72319;SDS011;60269;52.502;16.732;2023-04-30T06:30:13;9.63;;;1.98;;
72319;SDS011;60269;52.502;16.732;2023-04-30T06:33:45;5.25;;;1.00;;
72319;SDS011;60269;52.502;16.732;2023-04-30T06:37:17;6.03;;;1.40;;
72319;SDS011;60269;52.502;16.732;2023-04-30T06:40:49;7.50;;;1.30;;
72319;SDS011;60269;52.502;16.732;2023-04-30T06:44:21;7.25;;;1.58;;
72319;SDS011;60269;52.502;16.732;2023-04-30T06:47:53;6.55;;;1.65;;
72319;SDS011;60269;52.502;16.732;2023-04-30T06:51:26;11.53;;;1.70;;
72319;SDS011;60269;52.502;16.732;2023-04-30T06:54:58;6.53;;;1.35;;
72319;SDS011;60269;52.502;16.732;2023-04-30T06:58:31;5.38;;;1.30;;
72319;SDS011;60269;52.502;16.732;2023-04-30T07:02:04;7.18;;;1.35;;
72319;SDS011;60269;52.502;16.732;2023-04-30T07:05:36;7.40;;;1.60;;
72319;SDS011;60269;52.502;16.732;2023-04-30T07:09:08;7.03;;;1.25;;
72319;SDS011;60269;52.502;16.732;2023-04-30T07:12:40;9.07;;;1.60;;
72319;SDS011;60269;52.502;16.732;2023-04-30T07:16:12;8.67;;;1.40;;
72319;SDS011;60269;52.502;16.732;2023-04-30T07:19:47;5.72;;;1.27;;
72319;SDS011;60269;52.502;16.732;2023-04-30T07:23:19;9.18;;;1.48;;
72319;SDS011;60269;52.502;16.732;2023-04-30T07:26:52;7.55;;;1.45;;
72319;SDS011;60269;52.502;16.732;2023-04-30T07:30:24;8.27;;;2.20;;
72319;SDS011;60269;52.502;16.732;2023-04-30T07:33:56;6.47;;;1.23;;
72319;SDS011;60269;52.502;16.732;2023-04-30T07:37:29;10.20;;;1.50;;
72319;SDS011;60269;52.502;16.732;2023-04-30T07:41:01;5.93;;;1.60;;
72319;SDS011;60269;52.502;16.732;2023-04-30T07:44:33;8.77;;;1.25;;
72319;SDS011;60269;52.502;16.732;2023-04-30T07:48:05;6.40;;;0.90;;
72319;SDS011;60269;52.502;16.732;2023-04-30T07:51:37;6.97;;;1.05;;
72319;SDS011;60269;52.502;16.732;2023-04-30T07:55:10;5.43;;;1.17;;
72319;SDS011;60269;52.502;16.732;2023-04-30T07:58:42;7.70;;;1.05;;
72319;SDS011;60269;52.502;16.732;2023-04-30T08:02:14;9.15;;;1.13;;
72319;SDS011;60269;52.502;16.732;2023-04-30T08:05:46;6.40;;;0.93;;
72319;SDS011;60269;52.502;16.732;2023-04-30T08:09:18;3.77;;;0.83;;
72319;SDS011;60269;52.502;16.732;2023-04-30T08:12:50;5.90;;;1.00;;
72319;SDS011;60269;52.502;16.732;2023-04-30T08:16:25;7.28;;;0.90;;
72319;SDS011;60269;52.502;16.732;2023-04-30T08:19:57;7.20;;;1.03;;
72319;SDS011;60269;52.502;16.732;2023-04-30T08:23:29;6.15;;;1.00;;
72319;SDS011;60269;52.502;16.732;2023-04-30T08:27:01;4.45;;;0.90;;
72319;SDS011;60269;52.502;16.732;2023-04-30T08:30:34;6.80;;;0.93;;
72319;SDS011;60269;52.502;16.732;2023-04-30T08:34:06;5.10;;;0.80;;
72319;SDS011;60269;52.502;16.732;2023-04-30T08:37:38;6.30;;;0.77;;
72319;SDS011;60269;52.502;16.732;2023-04-30T08:41:10;6.93;;;1.00;;
72319;SDS011;60269;52.502;16.732;2023-04-30T08:44:46;4.63;;;0.70;;
72319;SDS011;60269;52.502;16.732;2023-04-30T08:48:19;3.60;;;0.80;;
72319;SDS011;60269;52.502;16.732;2023-04-30T08:51:51;6.47;;;0.88;;
72319;SDS011;60269;52.502;16.732;2023-04-30T08:55:25;6.53;;;0.88;;
72319;SDS011;60269;52.502;16.732;2023-04-30T08:58:58;6.83;;;1.10;;
72319;SDS011;60269;52.502;16.732;2023-04-30T09:02:30;6.18;;;1.10;;
72319;SDS011;60269;52.502;16.732;2023-04-30T09:06:03;5.35;;;0.63;;
72319;SDS011;60269;52.502;16.732;2023-04-30T09:09:36;4.68;;;0.63;;
72319;SDS011;60269;52.502;16.732;2023-04-30T09:13:09;2.90;;;0.70;;
72319;SDS011;60269;52.502;16.732;2023-04-30T09:16:46;6.72;;;0.90;;
72319;SDS011;60269;52.502;16.732;2023-04-30T09:20:20;5.63;;;0.80;;
72319;SDS011;60269;52.502;16.732;2023-04-30T09:23:57;7.50;;;0.80;;
72319;SDS011;60269;52.502;16.732;2023-04-30T09:27:30;7.13;;;0.90;;
72319;SDS011;60269;52.502;16.732;2023-04-30T09:31:02;5.28;;;0.60;;
72319;SDS011;60269;52.502;16.732;2023-04-30T09:34:34;5.93;;;0.90;;
72319;SDS011;60269;52.502;16.732;2023-04-30T09:38:24;5.93;;;0.80;;
72319;SDS011;60269;52.502;16.732;2023-04-30T09:42:06;5.70;;;1.20;;
72319;SDS011;60269;52.502;16.732;2023-04-30T09:45:42;8.50;;;1.50;;
72319;SDS011;60269;52.502;16.732;2023-04-30T09:49:27;6.03;;;1.33;;
72319;SDS011;60269;52.502;16.732;2023-04-30T09:53:06;8.20;;;0.90;;
72319;SDS011;60269;52.502;16.732;2023-04-30T09:56:43;7.00;;;1.15;;
72319;SDS011;60269;52.502;16.732;2023-04-30T10:00:16;4.13;;;0.88;;
72319;SDS011;60269;52.502;16.732;2023-04-30T10:03:49;4.77;;;0.70;;
72319;SDS011;60269;52.502;16.732;2023-04-30T10:07:21;6.73;;;0.83;;
72319;SDS011;60269;52.502;16.732;2023-04-30T10:11:03;7.00;;;1.10;;
72319;SDS011;60269;52.502;16.732;2023-04-30T10:14:36;3.28;;;0.57;;
72319;SDS011;60269;52.502;16.732;2023-04-30T10:18:10;4.03;;;1.10;;
72319;SDS011;60269;52.502;16.732;2023-04-30T10:21:48;5.53;;;0.87;;
72319;SDS011;60269;52.502;16.732;2023-04-30T10:25:20;4.45;;;0.90;;
72319;SDS011;60269;52.502;16.732;2023-04-30T10:28:54;5.28;;;0.85;;
72319;SDS011;60269;52.502;16.732;2023-04-30T10:32:30;7.23;;;1.40;;
72319;SDS011;60269;52.502;16.732;2023-04-30T10:40:19;4.75;;;0.90;;
72319;SDS011;60269;52.502;16.732;2023-04-30T10:43:53;7.38;;;1.25;;
72319;SDS011;60269;52.502;16.732;2023-04-30T10:47:27;9.23;;;1.25;;
72319;SDS011;60269;52.502;16.732;2023-04-30T10:51:01;10.97;;;3.73;;
72319;SDS011;60269;52.502;16.732;2023-04-30T10:54:34;7.88;;;1.58;;
72319;SDS011;60269;52.502;16.732;2023-04-30T10:58:21;7.07;;;1.10;;
72319;SDS011;60269;52.502;16.732;2023-04-30T11:01:57;5.97;;;1.20;;
72319;SDS011;60269;52.502;16.732;2023-04-30T11:05:40;7.30;;;2.63;;
72319;SDS011;60269;52.502;16.732;2023-04-30T11:09:12;18.75;;;7.53;;
72319;SDS011;60269;52.502;16.732;2023-04-30T11:12:47;6.38;;;1.70;;
72319;SDS011;60269;52.502;16.732;2023-04-30T11:16:20;6.50;;;1.03;;
72319;SDS011;60269;52.502;16.732;2023-04-30T11:20:00;6.73;;;0.80;;
72319;SDS011;60269;52.502;16.732;2023-04-30T11:23:32;6.95;;;1.20;;
72319;SDS011;60269;52.502;16.732;2023-04-30T11:27:08;4.95;;;1.13;;
72319;SDS011;60269;52.502;16.732;2023-04-30T11:30:53;7.97;;;2.40;;
72319;SDS011;60269;52.502;16.732;2023-04-30T11:34:25;9.55;;;2.20;;
72319;SDS011;60269;52.502;16.732;2023-04-30T11:37:57;12.10;;;2.17;;
72319;SDS011;60269;52.502;16.732;2023-04-30T11:41:30;7.70;;;1.77;;
72319;SDS011;60269;52.502;16.732;2023-04-30T11:45:08;8.07;;;1.20;;
72319;SDS011;60269;52.502;16.732;2023-04-30T11:48:45;5.82;;;1.33;;
72319;SDS011;60269;52.502;16.732;2023-04-30T11:52:19;5.38;;;1.80;;
72319;SDS011;60269;52.502;16.732;2023-04-30T11:55:52;4.97;;;1.67;;
72319;SDS011;60269;52.502;16.732;2023-04-30T11:59:26;7.23;;;2.80;;
72319;SDS011;60269;52.502;16.732;2023-04-30T12:02:58;7.97;;;1.92;;
72319;SDS011;60269;52.502;16.732;2023-04-30T12:06:32;5.25;;;1.30;;
72319;SDS011;60269;52.502;16.732;2023-04-30T12:10:04;4.80;;;1.23;;
72319;SDS011;60269;52.502;16.732;2023-04-30T12:13:37;4.43;;;1.10;;
72319;SDS011;60269;52.502;16.732;2023-04-30T12:17:09;5.22;;;1.25;;
72319;SDS011;60269;52.502;16.732;2023-04-30T12:20:41;7.18;;;1.40;;
72319;SDS011;60269;52.502;16.732;2023-04-30T12:24:14;7.57;;;2.70;;
72319;SDS011;60269;52.502;16.732;2023-04-30T12:27:48;20.13;;;7.07;;
72319;SDS011;60269;52.502;16.732;2023-04-30T12:31:24;7.38;;;2.28;;
72319;SDS011;60269;52.502;16.732;2023-04-30T12:35:00;7.55;;;1.98;;
72319;SDS011;60269;52.502;16.732;2023-04-30T12:38:32;4.70;;;1.40;;
72319;SDS011;60269;52.502;16.732;2023-04-30T12:42:04;8.80;;;2.13;;
72319;SDS011;60269;52.502;16.732;2023-04-30T12:45:49;8.20;;;1.80;;
72319;SDS011;60269;52.502;16.732;2023-04-30T12:53:00;6.17;;;1.60;;
72319;SDS011;60269;52.502;16.732;2023-04-30T12:56:33;5.63;;;1.93;;
72319;SDS011;60269;52.502;16.732;2023-04-30T13:00:05;8.48;;;1.95;;
72319;SDS011;60269;52.502;16.732;2023-04-30T13:03:38;7.20;;;1.45;;
72319;SDS011;60269;52.502;16.732;2023-04-30T13:07:11;5.27;;;1.60;;
72319;SDS011;60269;52.502;16.732;2023-04-30T13:10:44;3.97;;;1.60;;
72319;SDS011;60269;52.502;16.732;2023-04-30T13:14:19;6.82;;;2.08;;
72319;SDS011;60269;52.502;16.732;2023-04-30T13:17:52;4.93;;;1.15;;
72319;SDS011;60269;52.502;16.732;2023-04-30T13:21:24;7.00;;;1.57;;
72319;SDS011;60269;52.502;16.732;2023-04-30T13:24:57;7.90;;;1.77;;
72319;SDS011;60269;52.502;16.732;2023-04-30T13:28:29;5.55;;;1.70;;
72319;SDS011;60269;52.502;16.732;2023-04-30T13:32:01;7.55;;;1.50;;
72319;SDS011;60269;52.502;16.732;2023-04-30T13:35:34;7.30;;;1.90;;
72319;SDS011;60269;52.502;16.732;2023-04-30T13:39:06;6.63;;;1.70;;
72319;SDS011;60269;52.502;16.732;2023-04-30T13:42:39;6.55;;;1.83;;
72319;SDS011;60269;52.502;16.732;2023-04-30T13:46:13;9.30;;;2.08;;
72319;SDS011;60269;52.502;16.732;2023-04-30T13:49:45;8.93;;;1.70;;
72319;SDS011;60269;52.502;16.732;2023-04-30T13:53:18;8.87;;;2.07;;
72319;SDS011;60269;52.502;16.732;2023-04-30T13:56:49;8.93;;;2.30;;
72319;SDS011;60269;52.502;16.732;2023-04-30T14:00:22;6.53;;;2.08;;
72319;SDS011;60269;52.502;16.732;2023-04-30T14:03:57;5.23;;;1.67;;
72319;SDS011;60269;52.502;16.732;2023-04-30T14:07:30;4.37;;;1.73;;
72319;SDS011;60269;52.502;16.732;2023-04-30T14:11:02;7.00;;;1.58;;
72319;SDS011;60269;52.502;16.732;2023-04-30T14:14:34;5.05;;;1.23;;
72319;SDS011;60269;52.502;16.732;2023-04-30T14:18:09;5.80;;;1.80;;
72319;SDS011;60269;52.502;16.732;2023-04-30T14:21:41;5.07;;;1.77;;
72319;SDS011;60269;52.502;16.732;2023-04-30T14:25:13;7.07;;;1.40;;
72319;SDS011;60269;52.502;16.732;2023-04-30T14:28:47;5.40;;;1.67;;
72319;SDS011;60269;52.502;16.732;2023-04-30T14:32:19;6.77;;;1.80;;
72319;SDS011;60269;52.502;16.732;2023-04-30T14:35:52;7.60;;;2.07;;
72319;SDS011;60269;52.502;16.732;2023-04-30T14:39:24;7.68;;;1.92;;
72319;SDS011;60269;52.502;16.732;2023-04-30T14:42:57;7.40;;;1.77;;
72319;SDS011;60269;52.502;16.732;2023-04-30T14:46:29;6.40;;;2.20;;
72319;SDS011;60269;52.502;16.732;2023-04-30T14:50:02;6.97;;;1.67;;
72319;SDS011;60269;52.502;16.732;2023-04-30T14:53:34;6.50;;;1.50;;
72319;SDS011;60269;52.502;16.732;2023-04-30T14:57:07;8.77;;;2.78;;
72319;SDS011;60269;52.502;16.732;2023-04-30T15:00:39;9.17;;;2.50;;
72319;SDS011;60269;52.502;16.732;2023-04-30T15:04:12;8.60;;;2.23;;
72319;SDS011;60269;52.502;16.732;2023-04-30T15:07:44;7.28;;;2.55;;
72319;SDS011;60269;52.502;16.732;2023-04-30T15:11:18;6.05;;;1.65;;
72319;SDS011;60269;52.502;16.732;2023-04-30T15:14:51;9.03;;;2.00;;
72319;SDS011;60269;52.502;16.732;2023-04-30T15:18:23;6.50;;;1.80;;
72319;SDS011;60269;52.502;16.732;2023-04-30T15:21:55;4.57;;;1.38;;
72319;SDS011;60269;52.502;16.732;2023-04-30T15:25:27;5.72;;;1.52;;
72319;SDS011;60269;52.502;16.732;2023-04-30T15:29:00;5.93;;;1.70;;
72319;SDS011;60269;52.502;16.732;2023-04-30T15:32:32;5.10;;;1.53;;
72319;SDS011;60269;52.502;16.732;2023-04-30T15:36:04;8.43;;;2.15;;
72319;SDS011;60269;52.502;16.732;2023-04-30T15:39:36;4.20;;;1.65;;
72319;SDS011;60269;52.502;16.732;2023-04-30T15:43:08;6.50;;;1.87;;
72319;SDS011;60269;52.502;16.732;2023-04-30T15:46:40;4.73;;;1.40;;
72319;SDS011;60269;52.502;16.732;2023-04-30T15:50:12;4.40;;;1.52;;
72319;SDS011;60269;52.502;16.732;2023-04-30T15:53:45;7.68;;;1.52;;
72319;SDS011;60269;52.502;16.732;2023-04-30T15:57:16;5.60;;;1.90;;
72319;SDS011;60269;52.502;16.732;2023-04-30T16:00:49;5.43;;;1.47;;
72319;SDS011;60269;52.502;16.732;2023-04-30T16:04:21;7.55;;;2.08;;
72319;SDS011;60269;52.502;16.732;2023-04-30T16:07:52;5.03;;;1.38;;
72319;SDS011;60269;52.502;16.732;2023-04-30T16:11:25;6.77;;;2.43;;
72319;SDS011;60269;52.502;16.732;2023-04-30T16:14:57;9.93;;;1.37;;
72319;SDS011;60269;52.502;16.732;2023-04-30T16:18:29;3.72;;;1.13;;
72319;SDS011;60269;52.502;16.732;2023-04-30T16:22:01;6.03;;;1.80;;
72319;SDS011;60269;52.502;16.732;2023-04-30T16:25:33;5.70;;;1.47;;
72319;SDS011;60269;52.502;16.732;2023-04-30T16:29:05;7.27;;;1.60;;
72319;SDS011;60269;52.502;16.732;2023-04-30T16:32:37;4.88;;;1.50;;
72319;SDS011;60269;52.502;16.732;2023-04-30T16:36:09;4.82;;;1.30;;
72319;SDS011;60269;52.502;16.732;2023-04-30T16:39:41;7.47;;;1.90;;
72319;SDS011;60269;52.502;16.732;2023-04-30T16:43:13;7.00;;;1.97;;
72319;SDS011;60269;52.502;16.732;2023-04-30T16:46:45;9.63;;;1.83;;
72319;SDS011;60269;52.502;16.732;2023-04-30T16:50:17;8.13;;;1.50;;
72319;SDS011;60269;52.502;16.732;2023-04-30T16:53:49;5.87;;;2.00;;
72319;SDS011;60269;52.502;16.732;2023-04-30T16:57:21;8.00;;;1.67;;
72319;SDS011;60269;52.502;16.732;2023-04-30T17:00:55;4.60;;;1.20;;
72319;SDS011;60269;52.502;16.732;2023-04-30T17:04:27;8.55;;;1.80;;
72319;SDS011;60269;52.502;16.732;2023-04-30T17:07:59;7.27;;;1.10;;
72319;SDS011;60269;52.502;16.732;2023-04-30T17:11:32;4.47;;;1.27;;
72319;SDS011;60269;52.502;16.732;2023-04-30T17:15:04;5.57;;;1.10;;
72319;SDS011;60269;52.502;16.732;2023-04-30T17:18:43;4.18;;;1.23;;
72319;SDS011;60269;52.502;16.732;2023-04-30T17:22:19;7.40;;;1.23;;
72319;SDS011;60269;52.502;16.732;2023-04-30T17:25:53;7.13;;;1.45;;
72319;SDS011;60269;52.502;16.732;2023-04-30T17:29:25;9.10;;;1.38;;
72319;SDS011;60269;52.502;16.732;2023-04-30T17:32:57;6.13;;;1.33;;
72319;SDS011;60269;52.502;16.732;2023-04-30T17:36:31;7.87;;;2.27;;
72319;SDS011;60269;52.502;16.732;2023-04-30T17:40:03;5.97;;;1.67;;
72319;SDS011;60269;52.502;16.732;2023-04-30T17:43:36;6.28;;;1.60;;
72319;SDS011;60269;52.502;16.732;2023-04-30T17:47:07;7.10;;;1.70;;
72319;SDS011;60269;52.502;16.732;2023-04-30T17:50:39;5.27;;;1.37;;
72319;SDS011;60269;52.502;16.732;2023-04-30T17:54:12;5.15;;;1.40;;
72319;SDS011;60269;52.502;16.732;2023-04-30T17:57:44;6.50;;;1.15;;
72319;SDS011;60269;52.502;16.732;2023-04-30T18:01:16;5.90;;;1.40;;
72319;SDS011;60269;52.502;16.732;2023-04-30T18:04:48;12.57;;;2.85;;
72319;SDS011;60269;52.502;16.732;2023-04-30T18:08:20;13.40;;;4.18;;
72319;SDS011;60269;52.502;16.732;2023-04-30T18:11:52;12.40;;;3.28;;
72319;SDS011;60269;52.502;16.732;2023-04-30T18:15:25;9.43;;;3.27;;
72319;SDS011;60269;52.502;16.732;2023-04-30T18:18:57;7.50;;;1.98;;
72319;SDS011;60269;52.502;16.732;2023-04-30T18:22:29;8.77;;;2.13;;
72319;SDS011;60269;52.502;16.732;2023-04-30T18:26:01;9.90;;;2.30;;
72319;SDS011;60269;52.502;16.732;2023-04-30T18:29:33;9.33;;;1.80;;
72319;SDS011;60269;52.502;16.732;2023-04-30T18:33:06;9.00;;;2.00;;
72319;SDS011;60269;52.502;16.732;2023-04-30T18:36:38;20.58;;;6.57;;
72319;SDS011;60269;52.502;16.732;2023-04-30T18:40:13;15.10;;;7.07;;
72319;SDS011;60269;52.502;16.732;2023-04-30T18:43:45;19.83;;;7.43;;
72319;SDS011;60269;52.502;16.732;2023-04-30T18:47:18;17.17;;;5.25;;
72319;SDS011;60269;52.502;16.732;2023-04-30T18:50:50;11.87;;;3.60;;
72319;SDS011;60269;52.502;16.732;2023-04-30T18:54:22;12.63;;;3.20;;
72319;SDS011;60269;52.502;16.732;2023-04-30T18:57:55;9.73;;;2.75;;
72319;SDS011;60269;52.502;16.732;2023-04-30T19:01:27;11.05;;;3.03;;
72319;SDS011;60269;52.502;16.732;2023-04-30T19:04:59;10.00;;;3.13;;
72319;SDS011;60269;52.502;16.732;2023-04-30T19:08:31;12.60;;;3.60;;
72319;SDS011;60269;52.502;16.732;2023-04-30T19:12:03;9.05;;;3.30;;
72319;SDS011;60269;52.502;16.732;2023-04-30T19:15:35;10.57;;;3.50;;
72319;SDS011;60269;52.502;16.732;2023-04-30T19:19:07;11.23;;;3.05;;
72319;SDS011;60269;52.502;16.732;2023-04-30T19:22:39;10.40;;;2.90;;
72319;SDS011;60269;52.502;16.732;2023-04-30T19:26:12;10.40;;;2.38;;
72319;SDS011;60269;52.502;16.732;2023-04-30T19:29:44;12.97;;;3.37;;
72319;SDS011;60269;52.502;16.732;2023-04-30T19:33:17;13.38;;;4.03;;
72319;SDS011;60269;52.502;16.732;2023-04-30T19:36:53;12.30;;;3.50;;
72319;SDS011;60269;52.502;16.732;2023-04-30T19:40:26;12.50;;;3.63;;
72319;SDS011;60269;52.502;16.732;2023-04-30T19:43:57;15.13;;;4.53;;
72319;SDS011;60269;52.502;16.732;2023-04-30T19:47:30;10.93;;;3.85;;
72319;SDS011;60269;52.502;16.732;2023-04-30T19:51:03;11.30;;;4.15;;
72319;SDS011;60269;52.502;16.732;2023-04-30T19:54:36;13.57;;;3.40;;
72319;SDS011;60269;52.502;16.732;2023-04-30T19:58:08;9.57;;;3.20;;
72319;SDS011;60269;52.502;16.732;2023-04-30T20:01:40;12.27;;;3.65;;
72319;SDS011;60269;52.502;16.732;2023-04-30T20:05:13;12.43;;;3.53;;
72319;SDS011;60269;52.502;16.732;2023-04-30T20:08:45;10.32;;;2.40;;
72319;SDS011;60269;52.502;16.732;2023-04-30T20:12:17;11.70;;;2.20;;
72319;SDS011;60269;52.502;16.732;2023-04-30T20:15:49;9.30;;;2.60;;
72319;SDS011;60269;52.502;16.732;2023-04-30T20:19:22;11.13;;;2.83;;
72319;SDS011;60269;52.502;16.732;2023-04-30T20:22:54;12.32;;;3.10;;
72319;SDS011;60269;52.502;16.732;2023-04-30T20:26:26;11.77;;;2.83;;
72319;SDS011;60269;52.502;16.732;2023-04-30T20:29:59;12.43;;;2.67;;
72319;SDS011;60269;52.502;16.732;2023-04-30T20:33:32;9.35;;;2.60;;
72319;SDS011;60269;52.502;16.732;2023-04-30T20:37:04;8.88;;;2.47;;
72319;SDS011;60269;52.502;16.732;2023-04-30T20:40:36;9.73;;;2.37;;
72319;SDS011;60269;52.502;16.732;2023-04-30T20:44:11;14.98;;;2.40;;
72319;SDS011;60269;52.502;16.732;2023-04-30T20:47:43;9.95;;;2.28;;
72319;SDS011;60269;52.502;16.732;2023-04-30T20:51:17;12.87;;;4.57;;
72319;SDS011;60269;52.502;16.732;2023-04-30T20:54:49;15.77;;;5.22;;
72319;SDS011;60269;52.502;16.732;2023-04-30T20:58:21;14.40;;;4.40;;
72319;SDS011;60269;52.502;16.732;2023-04-30T21:01:53;12.65;;;4.70;;
72319;SDS011;60269;52.502;16.732;2023-04-30T21:05:25;13.43;;;3.80;;
72319;SDS011;60269;52.502;16.732;2023-04-30T21:08:59;11.85;;;3.90;;
72319;SDS011;60269;52.502;16.732;2023-04-30T21:12:31;14.07;;;4.47;;
72319;SDS011;60269;52.502;16.732;2023-04-30T21:16:04;15.03;;;5.00;;
72319;SDS011;60269;52.502;16.732;2023-04-30T21:19:36;12.07;;;3.53;;
72319;SDS011;60269;52.502;16.732;2023-04-30T21:23:08;12.00;;;3.50;;
72319;SDS011;60269;52.502;16.732;2023-04-30T21:26:40;9.40;;;2.80;;